This is the latest recevied weather packets stored in our database for station/object Sauldorf. If no packets are shown the sender has not sent any weather packets the latest 10 day(s).
| Time | Temp. | Humidity | Pressure | Rain* | Wind** | Luminosity | Snow |
|---|---|---|---|---|---|---|---|
| 1777800731 | 21.67° C | 47% | 1014.1 hPa | 0 mm | - | - | - |
| 1777798930 | 21.11° C | 47% | 1014.2 hPa | 0 mm | - | - | - |
| 1777797132 | 19.44° C | 55% | 1014.5 hPa | 0 mm | - | - | - |
| 1777795332 | 17.22° C | 64% | 1014.5 hPa | 0 mm | - | - | - |
| 1777793531 | 15.56° C | 68% | 1014.6 hPa | 0 mm | - | - | - |
| 1777791731 | 15° C | 68% | 1014.4 hPa | 0 mm | - | - | - |
| 1777789931 | 12.22° C | 78% | 1014.4 hPa | 0 mm | - | - | - |
| 1777788131 | 10.56° C | 83% | 1014.5 hPa | 0 mm | - | - | - |
| 1777786331 | 8.89° C | 86% | 1014.4 hPa | 0 mm | - | - | - |
| 1777784533 | 7.22° C | 84% | 1014.4 hPa | 0 mm | - | - | - |
| 1777782731 | 7.22° C | 81% | 1014.3 hPa | 0 mm | - | - | - |
| 1777780930 | 7.78° C | 79% | 1014.3 hPa | 0 mm | - | - | - |
| 1777779131 | 8.33° C | 79% | 1014.6 hPa | 0 mm | - | - | - |
| 1777777331 | 8.33° C | 80% | 1014.6 hPa | 0 mm | - | - | - |
| 1777775531 | 8.33° C | 80% | 1014.6 hPa | 0 mm | - | - | - |
| 1777773731 | 8.33° C | 76% | 1014.8 hPa | 0 mm | - | - | - |
| 1777771932 | 8.89° C | 76% | 1014.8 hPa | 0 mm | - | - | - |
| 1777770132 | 9.44° C | 75% | 1014.8 hPa | 0 mm | - | - | - |
| 1777768329 | 10° C | 72% | 1015.1 hPa | 0 mm | - | - | - |
| 1777766530 | 10.56° C | 71% | 1015.2 hPa | 0 mm | - | - | - |
| 1777764730 | 10.56° C | 72% | 1015.4 hPa | 0 mm | - | - | - |
| 1777762930 | 11.11° C | 68% | 1015.4 hPa | 0 mm | - | - | - |
| 1777761131 | 11.67° C | 67% | 1015.5 hPa | 0 mm | - | - | - |
| 1777757530 | 12.78° C | 61% | 1015.7 hPa | 0 mm | - | - | - |
| 1777755729 | 13.89° C | 59% | 1015.7 hPa | 0 mm | - | - | - |
* Rain since midnight (hover to see other rain measurements)
** Current wind speed in m/s (hover to see current wind gust speed)